Time;durP1;ratioP1;P1;durP2;ratioP2;P2;SDS_P1;SDS_P2;PMS_P1;PMS_P2;Temp;Humidity;BMP_temperature;BMP_pressure;BME280_temperature;BME280_humidity;BME280_pressure;Samples;Min_cycle;Max_cycle;Signal;HPM_P1;HPM_P2
2022/10/25 00:01:45;;;;;;;2.50;1.20;;;14.70;99.90;;;;;;5070093;28;20101;-39
2022/10/25 00:04:10;;;;;;;2.55;1.17;;;14.80;99.90;;;;;;5065565;28;20020;-36
2022/10/25 00:06:36;;;;;;;3.75;1.67;;;14.80;99.90;;;;;;5076199;28;20048;-39
2022/10/25 00:09:02;;;;;;;4.35;1.27;;;14.80;99.90;;;;;;5064928;28;20032;-39
2022/10/25 00:11:29;;;;;;;4.90;1.73;;;14.80;99.90;;;;;;5074694;28;20021;-38
2022/10/25 00:13:57;;;;;;;4.53;1.90;;;14.80;99.90;;;;;;5064430;28;20032;-40
2022/10/25 00:16:26;;;;;;;2.75;1.50;;;14.80;99.90;;;;;;5075388;28;20024;-39
2022/10/25 00:18:52;;;;;;;2.67;1.30;;;14.80;99.90;;;;;;5063900;28;20028;-39
2022/10/25 00:21:18;;;;;;;3.85;1.67;;;14.80;99.90;;;;;;5075877;28;20024;-37
2022/10/25 00:23:44;;;;;;;4.22;1.58;;;14.80;99.90;;;;;;5063027;28;20468;-39
2022/10/25 00:26:10;;;;;;;4.53;1.60;;;14.80;99.90;;;;;;5073411;28;20042;-39
2022/10/25 00:28:37;;;;;;;5.00;1.67;;;14.70;99.90;;;;;;5065139;28;20029;-40
2022/10/25 00:31:05;;;;;;;2.85;1.77;;;14.80;99.90;;;;;;5071239;28;20038;-37
2022/10/25 00:33:32;;;;;;;3.83;1.50;;;14.80;99.90;;;;;;5046950;28;20044;-40
2022/10/25 00:36:14;;;;;;;2.72;1.40;;;14.80;99.90;;;;;;5050017;28;20103;-41
2022/10/25 00:38:40;;;;;;;4.18;1.70;;;14.80;99.90;;;;;;5046262;28;20849;-40
2022/10/25 00:41:07;;;;;;;5.30;1.50;;;14.80;99.90;;;;;;5048853;28;20064;-40
2022/10/25 00:43:48;;;;;;;3.35;1.83;;;14.80;99.90;;;;;;5049644;28;20115;-40
2022/10/25 00:46:25;;;;;;;4.07;1.80;;;14.80;99.90;;;;;;5047794;28;20077;-40
2022/10/25 00:49:12;;;;;;;4.07;1.90;;;14.80;99.90;;;;;;5048979;28;20055;-40
2022/10/25 00:51:48;;;;;;;2.78;2.05;;;14.70;99.90;;;;;;5049671;28;20036;-40
2022/10/25 00:54:17;;;;;;;2.33;1.98;;;14.70;99.90;;;;;;5046552;28;20067;-40
2022/10/25 00:56:46;;;;;;;4.53;2.17;;;14.80;99.90;;;;;;5050285;28;20151;-39
2022/10/25 00:59:19;;;;;;;3.60;1.90;;;14.80;99.90;;;;;;5047346;28;20029;-41
2022/10/25 01:01:44;;;;;;;;;;;14.80;99.90;;;;;;5046159;28;20029;-41
2022/10/25 01:04:14;;;;;;;3.30;1.90;;;14.80;99.90;;;;;;5042205;28;19915;-40
2022/10/25 01:06:49;;;;;;;7.15;2.35;;;14.80;99.90;;;;;;5049112;28;20020;-40
2022/10/25 01:09:18;;;;;;;2.65;2.00;;;14.70;99.90;;;;;;5055352;28;20029;-40
2022/10/25 01:11:44;;;;;;;4.30;2.30;;;14.80;99.90;;;;;;5060523;28;20059;-38
2022/10/25 01:14:13;;;;;;;4.50;2.72;;;14.80;99.90;;;;;;5051977;28;20527;-40
2022/10/25 01:17:16;;;;;;;2.97;2.05;;;14.80;99.90;;;;;;5061122;28;20128;-42
2022/10/25 01:20:00;;;;;;;4.90;2.25;;;14.90;99.90;;;;;;5055291;28;20035;-34
2022/10/25 01:22:33;;;;;;;3.25;1.70;;;14.90;99.90;;;;;;5057018;28;20025;-36
2022/10/25 01:25:18;;;;;;;4.82;2.72;;;14.90;99.90;;;;;;5057465;28;20769;-37
2022/10/25 01:28:12;;;;;;;4.97;2.45;;;14.90;99.90;;;;;;5055245;28;20104;-37
2022/10/25 01:30:52;;;;;;;5.32;2.42;;;14.90;99.90;;;;;;5061283;28;20103;-37
2022/10/25 01:33:41;;;;;;;5.15;2.92;;;14.90;99.90;;;;;;5070684;28;20143;-39
2022/10/25 01:36:19;;;;;;;4.25;2.25;;;15.00;99.90;;;;;;5062538;28;20483;-39
2022/10/25 01:39:07;;;;;;;4.13;2.35;;;15.00;99.90;;;;;;5074859;28;20028;-37
2022/10/25 01:42:20;;;;;;;4.50;2.35;;;15.00;99.90;;;;;;5062419;28;20036;-39
2022/10/25 01:45:03;;;;;;;5.80;2.60;;;14.90;99.90;;;;;;5000164;28;20057;-41
2022/10/25 01:47:40;;;;;;;5.85;2.17;;;15.00;99.90;;;;;;4999593;28;20397;-40
2022/10/25 01:50:07;;;;;;;3.38;2.10;;;14.90;99.90;;;;;;5052543;28;20040;-41
2022/10/25 01:52:33;;;;;;;3.95;2.25;;;15.00;99.90;;;;;;5080905;28;20059;-40
2022/10/25 01:54:58;;;;;;;6.47;2.53;;;15.00;99.90;;;;;;5071299;28;20059;-41
2022/10/25 01:57:45;;;;;;;4.43;2.20;;;15.00;99.90;;;;;;5082367;28;20032;-38
2022/10/25 02:00:16;;;;;;;4.18;2.17;;;15.00;99.90;;;;;;5071347;28;20031;-41
2022/10/25 02:03:08;;;;;;;5.00;2.45;;;15.00;99.90;;;;;;5071786;28;20032;-41
2022/10/25 02:06:18;;;;;;;4.25;2.15;;;15.00;99.90;;;;;;5074231;28;20106;-41
2022/10/25 02:09:00;;;;;;;5.25;1.77;;;15.00;99.90;;;;;;5026695;28;20033;-40
2022/10/25 02:11:29;;;;;;;5.13;2.00;;;15.00;99.90;;;;;;5069108;28;20107;-40
2022/10/25 02:14:20;;;;;;;5.22;1.60;;;15.00;99.90;;;;;;5066771;28;20078;-41
2022/10/25 02:17:02;;;;;;;3.38;2.10;;;15.00;99.90;;;;;;5067010;28;20040;-40
2022/10/25 02:19:32;;;;;;;4.25;1.95;;;15.00;99.90;;;;;;5069256;28;20081;-40
2022/10/25 02:22:00;;;;;;;5.65;1.98;;;15.00;99.90;;;;;;5071738;28;20031;-39
2022/10/25 02:24:27;;;;;;;4.68;1.80;;;15.00;99.90;;;;;;5070121;28;20019;-40
2022/10/25 02:26:55;;;;;;;4.18;1.80;;;15.00;99.90;;;;;;5073239;28;20115;-40
2022/10/25 02:29:22;;;;;;;5.15;1.77;;;15.00;99.90;;;;;;5068094;28;20028;-39
2022/10/25 02:31:48;;;;;;;3.60;2.08;;;15.00;99.90;;;;;;5074966;28;20052;-40
2022/10/25 02:34:14;;;;;;;3.78;1.75;;;15.00;99.90;;;;;;5067141;28;20035;-38
2022/10/25 02:36:39;;;;;;;5.25;1.90;;;15.00;99.90;;;;;;5077054;28;20071;-37
2022/10/25 02:39:06;;;;;;;4.05;2.10;;;15.00;99.90;;;;;;5067304;28;20024;-40
2022/10/25 02:41:32;;;;;;;5.72;2.22;;;15.00;99.90;;;;;;5076343;28;20104;-39
2022/10/25 02:44:01;;;;;;;7.07;2.15;;;15.00;99.90;;;;;;5065121;28;20028;-40
2022/10/25 02:46:27;;;;;;;6.85;2.10;;;15.00;99.90;;;;;;5073507;28;20020;-37
2022/10/25 02:48:52;;;;;;;5.03;2.40;;;15.00;99.90;;;;;;5086201;28;20391;-39
2022/10/25 02:51:18;;;;;;;5.20;2.22;;;15.00;99.90;;;;;;5072441;28;20735;-39
2022/10/25 02:53:45;;;;;;;5.97;2.33;;;15.00;99.90;;;;;;5085191;28;20467;-40
2022/10/25 02:56:13;;;;;;;5.65;2.30;;;15.00;99.90;;;;;;5073628;28;20103;-40
2022/10/25 02:58:41;;;;;;;7.00;2.58;;;15.10;99.90;;;;;;5083056;28;20031;-41
2022/10/25 03:01:07;;;;;;;4.22;2.50;;;15.00;99.90;;;;;;5075851;28;20171;-41
2022/10/25 03:03:33;;;;;;;7.28;2.67;;;15.00;99.90;;;;;;5066075;28;20048;-40
2022/10/25 03:05:59;;;;;;;5.85;2.58;;;15.00;99.90;;;;;;5070671;28;20466;-39
2022/10/25 03:08:25;;;;;;;4.93;2.80;;;15.10;99.90;;;;;;5070624;28;20025;-40
2022/10/25 03:10:51;;;;;;;7.10;3.00;;;15.00;99.90;;;;;;5068682;28;20013;-41
2022/10/25 03:13:16;;;;;;;6.53;3.10;;;15.10;99.90;;;;;;5072718;28;20147;-39
2022/10/25 03:15:44;;;;;;;6.40;3.00;;;15.10;99.90;;;;;;5065736;28;20067;-41
2022/10/25 03:18:10;;;;;;;6.13;3.03;;;15.10;99.90;;;;;;5075654;28;20033;-40
2022/10/25 03:20:35;;;;;;;6.82;3.40;;;15.10;99.90;;;;;;5065190;28;20476;-38
2022/10/25 03:23:01;;;;;;;4.63;2.88;;;15.10;99.90;;;;;;5076213;28;20074;-40
2022/10/25 03:25:27;;;;;;;6.82;3.05;;;15.10;99.90;;;;;;5064400;28;20892;-41
2022/10/25 03:27:52;;;;;;;5.00;2.63;;;15.10;99.90;;;;;;5071902;28;20077;-41
2022/10/25 03:30:18;;;;;;;4.40;2.90;;;15.10;99.90;;;;;;5083754;28;20099;-41
2022/10/25 03:32:43;;;;;;;10.43;3.30;;;15.10;99.90;;;;;;5070412;28;20052;-41
2022/10/25 03:35:09;;;;;;;7.40;4.13;;;15.10;99.90;;;;;;5075907;28;20108;-41
2022/10/25 03:37:34;;;;;;;4.65;2.90;;;15.10;99.90;;;;;;5068261;28;20131;-41
2022/10/25 03:40:00;;;;;;;6.25;3.40;;;15.10;99.90;;;;;;5082538;28;20055;-41
2022/10/25 03:42:25;;;;;;;5.93;3.13;;;15.10;99.90;;;;;;5078652;28;20031;-41
2022/10/25 03:44:51;;;;;;;6.25;3.50;;;15.10;99.90;;;;;;5068759;28;20761;-41
2022/10/25 03:47:17;;;;;;;7.47;3.55;;;15.10;99.90;;;;;;5069296;28;20032;-40
2022/10/25 03:49:43;;;;;;;7.22;3.67;;;15.10;99.90;;;;;;5071472;28;20056;-40
2022/10/25 03:52:09;;;;;;;5.05;3.30;;;15.10;99.90;;;;;;5066879;28;20028;-40
2022/10/25 03:54:35;;;;;;;6.22;3.17;;;15.10;99.90;;;;;;5072385;28;20029;-39
2022/10/25 03:57:02;;;;;;;4.65;2.60;;;15.10;99.90;;;;;;5066528;28;20028;-39
2022/10/25 03:59:27;;;;;;;7.22;3.55;;;15.10;99.90;;;;;;5075635;28;20016;-40
2022/10/25 04:01:53;;;;;;;6.78;3.72;;;15.10;99.90;;;;;;5065443;28;20032;-40
2022/10/25 04:04:19;;;;;;;5.15;2.65;;;15.10;99.90;;;;;;5074938;28;20472;-41
2022/10/25 04:06:44;;;;;;;6.18;3.20;;;15.10;99.90;;;;;;5063561;28;20483;-38
2022/10/25 04:09:10;;;;;;;7.05;3.50;;;15.10;99.90;;;;;;5075192;28;20246;-40
2022/10/25 04:11:35;;;;;;;6.32;3.15;;;15.10;99.90;;;;;;5064705;28;20141;-41
2022/10/25 04:14:01;;;;;;;7.03;3.88;;;15.10;99.90;;;;;;5077025;28;20032;-41
2022/10/25 04:16:27;;;;;;;6.03;2.97;;;15.10;99.90;;;;;;5063229;28;20032;-40
2022/10/25 04:18:53;;;;;;;7.22;3.33;;;15.10;99.90;;;;;;5074621;28;20024;-41
2022/10/25 04:21:20;;;;;;;3.55;2.70;;;15.10;99.90;;;;;;5065627;28;20020;-41
2022/10/25 04:23:46;;;;;;;6.90;3.30;;;15.10;99.90;;;;;;5070998;28;20021;-39
2022/10/25 04:26:16;;;;;;;7.35;2.60;;;15.10;99.90;;;;;;5067645;28;20036;-39
2022/10/25 04:28:42;;;;;;;6.13;2.97;;;15.10;99.90;;;;;;5069700;28;20794;-40
2022/10/25 04:31:07;;;;;;;3.97;2.40;;;15.20;99.90;;;;;;5068693;28;20081;-41
2022/10/25 04:33:33;;;;;;;4.88;2.92;;;15.10;99.90;;;;;;5067237;28;20538;-40
2022/10/25 04:35:58;;;;;;;5.97;3.00;;;15.10;99.90;;;;;;5072826;28;20041;-41
2022/10/25 04:38:24;;;;;;;4.15;2.83;;;15.10;99.90;;;;;;5064148;28;20051;-40
2022/10/25 04:40:57;;;;;;;4.57;2.78;;;15.10;99.90;;;;;;5074774;28;20016;-39
2022/10/25 04:43:24;;;;;;;5.10;2.60;;;15.10;99.90;;;;;;5063653;28;20021;-41
2022/10/25 04:45:50;;;;;;;5.95;2.75;;;15.10;99.90;;;;;;5074553;28;20414;-40
2022/10/25 04:48:16;;;;;;;6.13;3.00;;;15.10;99.90;;;;;;5063172;28;20586;-39
2022/10/25 04:50:41;;;;;;;5.57;2.67;;;15.00;99.90;;;;;;5075121;28;20086;-40
2022/10/25 04:53:07;;;;;;;4.25;2.50;;;15.00;99.90;;;;;;5063427;28;20028;-39
2022/10/25 04:55:32;;;;;;;7.80;2.70;;;15.00;99.90;;;;;;5076311;28;20479;-40
2022/10/25 04:57:58;;;;;;;5.03;2.63;;;15.00;99.90;;;;;;5062975;28;20143;-41
2022/10/25 05:00:24;;;;;;;5.18;2.58;;;15.00;99.90;;;;;;5074233;28;20027;-41
2022/10/25 05:02:51;;;;;;;4.93;2.80;;;15.00;99.90;;;;;;5073695;28;20028;-39
2022/10/25 05:05:16;;;;;;;4.97;2.90;;;15.00;99.90;;;;;;5073179;28;20025;-39
2022/10/25 05:07:42;;;;;;;5.20;3.47;;;15.00;99.90;;;;;;5080338;28;20067;-39
2022/10/25 05:10:08;;;;;;;5.30;2.70;;;15.00;99.90;;;;;;5076158;28;20032;-40
2022/10/25 05:12:34;;;;;;;5.38;3.10;;;15.00;99.90;;;;;;5076173;28;20074;-40
2022/10/25 05:14:59;;;;;;;6.20;3.05;;;15.00;99.90;;;;;;5078726;28;20095;-40
2022/10/25 05:17:25;;;;;;;6.22;3.20;;;15.00;99.90;;;;;;5073854;28;20047;-41
2022/10/25 05:19:50;;;;;;;8.18;3.55;;;15.00;99.90;;;;;;5080862;28;20027;-40
2022/10/25 05:22:16;;;;;;;5.10;2.88;;;15.00;99.90;;;;;;5071275;28;20046;-41
2022/10/25 05:24:41;;;;;;;6.65;3.03;;;15.00;99.90;;;;;;5081740;28;20029;-41
2022/10/25 05:27:07;;;;;;;5.78;3.10;;;15.00;99.90;;;;;;5071067;28;20703;-39
2022/10/25 05:29:33;;;;;;;6.10;2.92;;;15.00;99.90;;;;;;5083379;28;20471;-34
2022/10/25 05:31:58;;;;;;;5.30;2.80;;;15.00;99.90;;;;;;5070676;28;20044;-40
2022/10/25 05:34:24;;;;;;;5.43;2.85;;;15.00;99.90;;;;;;5082117;28;20037;-41
2022/10/25 05:36:50;;;;;;;5.28;2.70;;;15.00;99.90;;;;;;5076431;28;20048;-40
2022/10/25 05:39:15;;;;;;;4.45;3.20;;;15.00;99.90;;;;;;5061814;28;20027;-39
2022/10/25 05:41:41;;;;;;;4.32;2.47;;;15.00;99.90;;;;;;5073954;28;20032;-40
2022/10/25 05:44:07;;;;;;;6.00;2.30;;;15.00;99.90;;;;;;5082821;28;20020;-39
2022/10/25 05:46:33;;;;;;;5.22;2.45;;;14.90;99.90;;;;;;5071672;28;20897;-40
2022/10/25 05:48:59;;;;;;;3.88;2.45;;;14.90;99.90;;;;;;5077461;28;20028;-41
2022/10/25 05:51:27;;;;;;;4.57;2.35;;;14.90;99.90;;;;;;5076036;28;20020;-41
2022/10/25 05:53:56;;;;;;;4.68;2.20;;;14.90;99.90;;;;;;5074600;28;20031;-40
2022/10/25 05:56:23;;;;;;;4.70;2.20;;;14.90;99.90;;;;;;5080820;28;20135;-40
2022/10/25 05:58:49;;;;;;;3.25;2.25;;;14.90;99.90;;;;;;5077591;28;20071;-41
2022/10/25 06:01:18;;;;;;;4.30;2.30;;;14.80;99.90;;;;;;5082731;28;20012;-40
2022/10/25 06:03:47;;;;;;;6.60;3.10;;;14.80;99.90;;;;;;5082543;28;20064;-40
2022/10/25 06:06:13;;;;;;;4.25;2.00;;;14.80;99.90;;;;;;5084071;28;20063;-41
2022/10/25 06:08:39;;;;;;;5.32;2.80;;;14.70;99.90;;;;;;5073831;28;20031;-43
2022/10/25 06:11:11;;;;;;;4.75;2.22;;;14.70;99.90;;;;;;5085106;28;20058;-40
2022/10/25 06:13:37;;;;;;;4.80;2.15;;;14.70;99.90;;;;;;5079084;28;20036;-41
2022/10/25 06:16:11;;;;;;;3.03;2.00;;;14.70;99.90;;;;;;5082599;28;20459;-40
2022/10/25 06:18:37;;;;;;;3.13;1.75;;;14.70;99.90;;;;;;5078413;28;20139;-41
2022/10/25 06:21:18;;;;;;;2.55;2.17;;;14.70;99.90;;;;;;5083327;28;20020;-40
2022/10/25 06:23:44;;;;;;;3.63;1.95;;;14.70;99.90;;;;;;5078046;28;20103;-40
2022/10/25 06:26:12;;;;;;;4.18;2.10;;;14.60;99.90;;;;;;5085528;28;20031;-41
2022/10/25 06:28:38;;;;;;;4.85;2.45;;;14.60;99.90;;;;;;5078646;28;20024;-39
2022/10/25 06:31:05;;;;;;;2.63;2.13;;;14.60;99.90;;;;;;5083298;28;20020;-39
2022/10/25 06:33:31;;;;;;;5.63;2.50;;;14.70;99.90;;;;;;5079542;28;20131;-40
2022/10/25 06:35:58;;;;;;;3.63;2.50;;;14.60;99.90;;;;;;5066281;28;20273;-40
2022/10/25 06:38:25;;;;;;;4.88;2.90;;;14.60;99.90;;;;;;5074417;28;20035;-40
2022/10/25 06:40:57;;;;;;;5.10;2.90;;;14.60;99.90;;;;;;5068954;28;20030;-40
2022/10/25 06:43:22;;;;;;;4.35;2.83;;;14.60;99.90;;;;;;5071404;28;20106;-38
2022/10/25 06:45:48;;;;;;;5.00;2.65;;;14.60;99.90;;;;;;5070618;28;20040;-41
2022/10/25 06:48:13;;;;;;;4.38;2.88;;;14.60;99.90;;;;;;5069309;28;20021;-42
2022/10/25 06:50:39;;;;;;;5.13;2.97;;;14.60;99.90;;;;;;5072359;28;20032;-40
2022/10/25 06:53:04;;;;;;;5.45;2.85;;;14.60;99.90;;;;;;5067406;28;20167;-40
2022/10/25 06:55:30;;;;;;;5.25;2.72;;;14.70;99.90;;;;;;5081008;28;20491;-41
2022/10/25 06:57:56;;;;;;;4.88;2.90;;;14.60;99.90;;;;;;5078960;28;20664;-40
2022/10/25 07:00:22;;;;;;;5.47;3.47;;;14.70;99.90;;;;;;5082047;28;20028;-40
2022/10/25 07:02:57;;;;;;;4.40;2.60;;;14.70;99.90;;;;;;5083054;28;20106;-39
2022/10/25 07:05:23;;;;;;;3.88;2.65;;;14.70;99.90;;;;;;5073632;28;20767;-40
2022/10/25 07:07:50;;;;;;;5.35;3.08;;;14.70;99.90;;;;;;5066016;28;20017;-40
2022/10/25 07:10:16;;;;;;;5.20;2.88;;;14.70;99.90;;;;;;5079051;28;20028;-39
2022/10/25 07:12:42;;;;;;;7.50;3.00;;;14.80;99.90;;;;;;5081505;28;20035;-39
2022/10/25 07:15:08;;;;;;;5.85;2.88;;;14.80;99.90;;;;;;5079990;28;20032;-41
2022/10/25 07:17:33;;;;;;;5.55;2.97;;;14.80;99.90;;;;;;5084772;28;20043;-40
2022/10/25 07:19:59;;;;;;;5.85;2.80;;;14.80;99.90;;;;;;5079232;28;20073;-40
2022/10/25 07:22:24;;;;;;;5.75;2.95;;;14.90;99.90;;;;;;5080858;28;20028;-40
2022/10/25 07:24:50;;;;;;;4.50;2.88;;;14.90;99.90;;;;;;5079627;28;20023;-39
2022/10/25 07:27:16;;;;;;;6.80;3.08;;;14.80;99.90;;;;;;5082461;28;20027;-41
2022/10/25 07:29:41;;;;;;;3.83;2.20;;;14.90;99.90;;;;;;5079287;28;20021;-39
2022/10/25 07:32:08;;;;;;;5.78;2.75;;;14.90;99.90;;;;;;5076702;28;20044;-42
2022/10/25 07:34:34;;;;;;;4.63;3.20;;;14.90;99.90;;;;;;5081898;28;20032;-40
2022/10/25 07:37:00;;;;;;;6.75;3.42;;;14.90;99.90;;;;;;5075551;28;20034;-40
2022/10/25 07:39:25;;;;;;;4.85;3.03;;;15.00;99.90;;;;;;5081034;28;20094;-37
2022/10/25 07:41:52;;;;;;;5.88;3.10;;;15.00;99.90;;;;;;5076959;28;20027;-35
2022/10/25 07:44:19;;;;;;;6.72;3.15;;;15.00;99.90;;;;;;5065766;28;20028;-40
2022/10/25 07:46:45;;;;;;;5.63;3.20;;;15.10;99.90;;;;;;5075771;28;20380;-40
2022/10/25 07:49:14;;;;;;;3.75;3.00;;;15.20;99.90;;;;;;5075970;28;20472;-40
2022/10/25 07:51:40;;;;;;;7.78;2.80;;;15.20;99.90;;;;;;5076953;28;20467;-41
2022/10/25 07:54:05;;;;;;;3.92;2.72;;;15.20;99.90;;;;;;5065645;28;20058;-42
2022/10/25 07:56:31;;;;;;;4.45;3.25;;;15.20;99.90;;;;;;5078852;28;20800;-38
2022/10/25 07:58:59;;;;;;;5.90;3.42;;;15.20;99.90;;;;;;5082123;28;20020;-40
2022/10/25 08:01:27;;;;;;;6.32;2.88;;;15.20;99.90;;;;;;5075606;28;20024;-38
2022/10/25 08:03:53;;;;;;;5.80;3.20;;;15.30;99.90;;;;;;5080272;28;20082;-40
2022/10/25 08:06:20;;;;;;;8.63;4.20;;;15.30;99.90;;;;;;5079415;28;20105;-38
2022/10/25 08:08:46;;;;;;;6.32;3.72;;;15.30;99.90;;;;;;5082351;28;20024;-39
2022/10/25 08:11:12;;;;;;;6.90;3.88;;;15.40;99.90;;;;;;5075775;28;20024;-35
2022/10/25 08:13:38;;;;;;;4.78;3.75;;;15.30;99.90;;;;;;5075722;28;20463;-41
2022/10/25 08:16:05;;;;;;;5.63;3.78;;;15.30;99.90;;;;;;5076838;28;20021;-40
2022/10/25 08:18:31;;;;;;;5.05;3.80;;;15.30;99.90;;;;;;5074873;28;20089;-40
2022/10/25 08:20:57;;;;;;;4.65;3.60;;;15.30;99.90;;;;;;5079437;28;20024;-39
2022/10/25 08:23:24;;;;;;;7.20;4.00;;;15.40;99.90;;;;;;5076645;28;20020;-39
2022/10/25 08:25:50;;;;;;;5.63;3.92;;;15.40;99.90;;;;;;5083973;28;20028;-38
2022/10/25 08:28:16;;;;;;;8.93;4.57;;;15.40;99.90;;;;;;5074871;28;20047;-41
2022/10/25 08:30:42;;;;;;;5.55;4.63;;;15.40;99.90;;;;;;5083458;28;20051;-41
2022/10/25 08:33:08;;;;;;;7.30;4.55;;;15.40;99.90;;;;;;5071301;28;20048;-41
2022/10/25 08:35:33;;;;;;;5.80;4.78;;;15.50;99.90;;;;;;5083297;28;20051;-39
2022/10/25 08:38:00;;;;;;;6.40;5.18;;;15.40;99.90;;;;;;5070955;28;20050;-38
2022/10/25 08:41:04;;;;;;;6.60;5.32;;;15.50;99.90;;;;;;5083719;28;20415;-40
2022/10/25 08:43:56;;;;;;;5.85;5.10;;;15.50;99.90;;;;;;4989537;28;20038;-38
2022/10/25 08:46:42;;;;;;;8.57;5.90;;;15.50;99.90;;;;;;5072609;28;20131;-41
2022/10/25 08:49:32;;;;;;;9.48;7.20;;;15.60;99.90;;;;;;5071533;28;20604;-41
2022/10/25 08:51:59;;;;;;;9.57;6.28;;;15.60;99.90;;;;;;5082063;28;20035;-38
2022/10/25 08:54:33;;;;;;;7.90;6.00;;;15.70;99.90;;;;;;5071482;28;20615;-36
2022/10/25 08:57:18;;;;;;;9.63;6.88;;;15.70;99.90;;;;;;5080964;28;20043;-38
2022/10/25 08:59:49;;;;;;;8.80;6.88;;;15.70;99.90;;;;;;5082390;28;20578;-39
2022/10/25 09:02:25;;;;;;;9.50;6.80;;;15.60;99.90;;;;;;5078345;28;20020;-41
2022/10/25 09:04:51;;;;;;;8.80;6.55;;;15.60;99.90;;;;;;5081617;28;20059;-40
2022/10/25 09:07:29;;;;;;;7.65;6.10;;;15.70;99.90;;;;;;5080940;28;20095;-40
2022/10/25 09:10:02;;;;;;;9.18;6.60;;;15.70;99.90;;;;;;5079411;28;20032;-39
2022/10/25 09:12:41;;;;;;;7.80;6.30;;;15.80;99.90;;;;;;5078855;28;20475;-40
2022/10/25 09:15:38;;;;;;;7.72;6.78;;;15.90;99.90;;;;;;5080346;28;20647;-39
2022/10/25 09:18:15;;;;;;;8.60;7.70;;;15.90;99.90;;;;;;5074760;28;20123;-38
2022/10/25 09:20:48;;;;;;;8.32;6.68;;;16.00;99.90;;;;;;5077170;28;20027;-40
2022/10/25 09:23:22;;;;;;;7.40;5.88;;;16.00;99.90;;;;;;5077144;28;20036;-36
2022/10/25 09:26:11;;;;;;;9.38;7.20;;;16.00;99.90;;;;;;5070255;28;20028;-40
2022/10/25 09:29:11;;;;;;;9.60;7.35;;;16.10;99.90;;;;;;5069579;28;20081;-41
2022/10/25 09:31:42;;;;;;;7.10;6.32;;;16.10;99.90;;;;;;5055560;28;20051;-40
2022/10/25 09:34:13;;;;;;;9.90;7.20;;;16.10;99.90;;;;;;5080680;28;20131;-41
2022/10/25 09:36:45;;;;;;;10.48;7.50;;;16.10;99.90;;;;;;5084086;28;20047;-40
2022/10/25 09:39:21;;;;;;;11.38;7.85;;;16.20;99.90;;;;;;5078191;28;20033;-39
2022/10/25 09:41:52;;;;;;;8.52;6.97;;;16.20;99.90;;;;;;5083015;28;20036;-39
2022/10/25 09:44:41;;;;;;;8.00;6.87;;;16.10;99.90;;;;;;5082590;28;20031;-39
2022/10/25 09:47:18;;;;;;;9.88;8.02;;;16.20;99.90;;;;;;5084293;28;20309;-39
2022/10/25 09:49:51;;;;;;;8.43;6.88;;;16.30;99.90;;;;;;5081510;28;20066;-40
2022/10/25 09:52:36;;;;;;;9.10;7.70;;;16.20;99.90;;;;;;5081074;28;20015;-40
2022/10/25 09:55:10;;;;;;;9.65;6.63;;;16.30;99.90;;;;;;5079426;28;20028;-39
2022/10/25 09:57:36;;;;;;;10.70;7.75;;;16.20;99.90;;;;;;5082748;28;20039;-38
2022/10/25 10:00:05;;;;;;;9.18;7.38;;;16.20;99.90;;;;;;5077811;28;20020;-35
2022/10/25 10:02:31;;;;;;;8.95;6.63;;;16.20;99.90;;;;;;5079630;28;20039;-39
2022/10/25 10:04:56;;;;;;;7.90;5.80;;;16.20;99.90;;;;;;5072626;28;20020;-37
2022/10/25 10:07:29;;;;;;;6.97;6.20;;;16.30;99.90;;;;;;5072049;28;20046;-38
2022/10/25 10:09:55;;;;;;;;;;;16.30;99.90;;;;;;5071173;28;20019;-37
2022/10/25 10:12:28;;;;;;;9.65;7.20;;;16.40;99.90;;;;;;5073400;28;20049;-41
2022/10/25 10:15:16;;;;;;;7.43;6.55;;;16.40;99.90;;;;;;5068279;28;20044;-40
2022/10/25 10:17:42;;;;;;;7.78;6.60;;;16.50;99.90;;;;;;5072113;28;20530;-40
2022/10/25 10:20:14;;;;;;;7.30;6.40;;;16.50;99.90;;;;;;5068925;28;20052;-41
2022/10/25 10:22:53;;;;;;;7.15;5.70;;;16.60;99.90;;;;;;5073739;28;20036;-40
2022/10/25 10:25:24;;;;;;;7.05;6.35;;;16.60;99.90;;;;;;5068528;28;20866;-39
2022/10/25 10:27:53;;;;;;;8.40;5.78;;;16.60;99.90;;;;;;5073757;28;20029;-40
2022/10/25 10:30:25;;;;;;;8.52;6.40;;;16.60;99.90;;;;;;5067127;28;20082;-37
2022/10/25 10:32:58;;;;;;;8.25;6.07;;;16.50;99.90;;;;;;5075174;28;20047;-40
2022/10/25 10:35:33;;;;;;;7.05;5.82;;;16.40;99.90;;;;;;5066211;28;20052;-39
2022/10/25 10:38:27;;;;;;;10.35;5.97;;;16.40;99.90;;;;;;5075954;28;20028;-41
2022/10/25 10:41:12;;;;;;;6.90;6.05;;;16.50;99.90;;;;;;5080937;28;20113;-40
2022/10/25 10:43:38;;;;;;;7.40;6.20;;;16.50;99.90;;;;;;5070888;28;20489;-40
2022/10/25 10:46:10;;;;;;;6.07;5.50;;;16.60;99.90;;;;;;5069794;28;20035;-41
2022/10/25 10:48:40;;;;;;;7.47;5.65;;;16.70;99.90;;;;;;5073367;28;20067;-39
2022/10/25 10:51:05;;;;;;;6.55;5.85;;;16.80;99.90;;;;;;5067595;28;20673;-39
2022/10/25 10:53:31;;;;;;;7.47;6.15;;;16.90;99.90;;;;;;5074802;28;20043;-39
2022/10/25 10:56:05;;;;;;;7.50;5.95;;;16.90;99.90;;;;;;5066235;28;20847;-38
2022/10/25 10:58:40;;;;;;;7.35;6.15;;;17.00;99.90;;;;;;5076238;28;20036;-40
2022/10/25 11:01:11;;;;;;;8.15;5.68;;;17.00;99.90;;;;;;5066582;28;20040;-40
2022/10/25 11:03:39;;;;;;;9.38;6.15;;;17.10;99.90;;;;;;5083947;28;20039;-40
2022/10/25 11:06:06;;;;;;;6.15;5.55;;;17.10;99.90;;;;;;5084230;28;20028;-41
2022/10/25 11:08:32;;;;;;;7.50;5.60;;;17.10;99.90;;;;;;5074216;28;20093;-40
2022/10/25 11:11:17;;;;;;;6.53;5.35;;;17.10;99.90;;;;;;5084967;28;20024;-40
2022/10/25 11:13:50;;;;;;;7.20;5.45;;;17.10;99.90;;;;;;5076343;28;20028;-40
2022/10/25 11:16:37;;;;;;;5.55;4.93;;;17.00;99.90;;;;;;5083890;28;20051;-39
2022/10/25 11:19:19;;;;;;;8.00;5.57;;;17.00;99.90;;;;;;5077815;28;20086;-39
2022/10/25 11:21:48;;;;;;;;;;;17.00;99.90;;;;;;5081286;28;20024;-38
2022/10/25 11:24:35;;;;;;;8.70;5.68;;;16.90;99.90;;;;;;5071288;28;19916;-39
2022/10/25 11:27:21;;;;;;;7.07;5.00;;;16.90;99.90;;;;;;5083345;28;20079;-38
2022/10/25 11:30:02;;;;;;;6.10;4.43;;;16.90;99.90;;;;;;5080991;28;20026;-40
2022/10/25 11:32:46;;;;;;;7.07;4.65;;;16.90;99.90;;;;;;5077995;28;20060;-42
2022/10/25 11:35:48;;;;;;;7.32;4.70;;;16.90;99.90;;;;;;5079822;28;20144;-41
2022/10/25 11:38:34;;;;;;;8.65;4.93;;;16.90;99.90;;;;;;5074031;28;20051;-41
2022/10/25 11:41:05;;;;;;;6.07;4.68;;;16.90;99.90;;;;;;5082868;28;20394;-40
2022/10/25 11:44:03;;;;;;;6.43;4.40;;;16.90;99.90;;;;;;5075164;28;20571;-42
2022/10/25 11:46:53;;;;;;;8.35;4.65;;;16.80;99.90;;;;;;5063670;28;20336;-38
2022/10/25 11:49:43;;;;;;;7.93;4.53;;;16.80;99.90;;;;;;5077122;28;20028;-38
2022/10/25 11:52:52;;;;;;;5.15;3.75;;;16.80;99.90;;;;;;5061665;28;20032;-37
2022/10/25 11:55:30;;;;;;;7.30;4.25;;;16.90;99.90;;;;;;5074991;28;20060;-38
2022/10/25 11:57:58;;;;;;;6.82;3.97;;;16.90;99.90;;;;;;5066087;28;20036;-37
2022/10/25 12:00:37;;;;;;;4.93;3.45;;;17.00;99.90;;;;;;5073748;28;20183;-40
2022/10/25 12:03:17;;;;;;;7.85;4.25;;;17.10;99.90;;;;;;5065438;28;20928;-40
2022/10/25 12:06:04;;;;;;;6.65;4.28;;;17.10;99.90;;;;;;5075155;28;20032;-40
2022/10/25 12:08:57;;;;;;;6.40;4.00;;;17.20;99.90;;;;;;5064422;28;20078;-39
2022/10/25 12:11:30;;;;;;;5.72;4.35;;;17.30;99.90;;;;;;5076021;28;20093;-38
2022/10/25 12:13:59;;;;;;;6.10;4.20;;;17.40;99.90;;;;;;5079806;28;20024;-36
2022/10/25 12:16:27;;;;;;;6.85;4.13;;;17.50;99.90;;;;;;5074546;28;20039;-39
2022/10/25 12:19:12;;;;;;;4.60;3.95;;;17.60;99.90;;;;;;5082600;28;20023;-39
2022/10/25 12:21:59;;;;;;;5.32;3.80;;;17.60;99.90;;;;;;5075266;28;20028;-40
2022/10/25 12:24:40;;;;;;;5.65;4.20;;;17.70;99.90;;;;;;5078695;28;20419;-39
2022/10/25 12:27:07;;;;;;;4.93;3.95;;;17.80;99.90;;;;;;5077231;28;20043;-40
2022/10/25 12:29:46;;;;;;;4.75;3.40;;;17.90;99.90;;;;;;5078693;28;20030;-40
2022/10/25 12:32:53;;;;;;;4.85;3.55;;;18.00;99.90;;;;;;5078224;28;20109;-39
2022/10/25 12:35:30;;;;;;;5.60;3.65;;;18.00;99.90;;;;;;5056995;28;20518;-39
2022/10/25 12:38:00;;;;;;;4.93;3.05;;;18.00;99.90;;;;;;5066122;28;20036;-40
2022/10/25 12:40:28;;;;;;;3.30;2.75;;;17.90;99.90;;;;;;5073662;28;20028;-40
2022/10/25 12:43:04;;;;;;;3.03;2.72;;;17.80;99.90;;;;;;5078235;28;20027;-36
2022/10/25 12:45:42;;;;;;;4.07;2.55;;;17.80;99.90;;;;;;5078327;28;20140;-38
2022/10/25 12:48:35;;;;;;;4.38;3.03;;;17.70;99.90;;;;;;5079026;28;21362;-41
2022/10/25 12:51:13;;;;;;;4.40;2.72;;;17.60;99.90;;;;;;5078542;28;20028;-40
2022/10/25 12:54:10;;;;;;;4.28;3.15;;;17.60;99.90;;;;;;5080220;28;20067;-37
2022/10/25 12:57:13;;;;;;;5.32;2.83;;;17.60;99.90;;;;;;5073596;28;20077;-41
2022/10/25 12:59:58;;;;;;;5.60;3.50;;;17.80;99.90;;;;;;5081221;28;20055;-38
2022/10/25 13:02:41;;;;;;;5.90;3.30;;;17.80;99.90;;;;;;5078917;28;20461;-38
2022/10/25 13:05:40;;;;;;;5.75;3.22;;;17.90;99.90;;;;;;5064421;28;20077;-38
2022/10/25 13:08:11;;;;;;;3.45;2.75;;;17.90;99.90;;;;;;5074683;28;20056;-41
2022/10/25 13:10:48;;;;;;;4.35;3.00;;;17.90;99.90;;;;;;5080767;28;20078;-40
2022/10/25 13:13:25;;;;;;;4.85;3.05;;;18.00;99.90;;;;;;5073683;28;20069;-38